createdAt,value
2017-12-05T00:00:02.673Z,13.40
2017-12-05T00:02:30.463Z,13.40
2017-12-05T00:04:58.249Z,13.50
2017-12-05T00:07:26.267Z,13.50
2017-12-05T00:09:54.055Z,13.50
2017-12-05T00:12:21.935Z,13.50
2017-12-05T00:14:49.870Z,13.50
2017-12-05T00:17:17.894Z,13.40
2017-12-05T00:19:46.556Z,13.40
2017-12-05T00:22:14.516Z,13.40
2017-12-05T00:24:42.439Z,13.40
2017-12-05T00:27:10.321Z,13.40
2017-12-05T00:29:38.161Z,13.40
2017-12-05T00:32:06.035Z,13.40
2017-12-05T00:34:33.872Z,13.30
2017-12-05T00:37:01.663Z,13.40
2017-12-05T00:39:29.488Z,13.30
2017-12-05T00:41:57.383Z,13.40
2017-12-05T00:44:25.200Z,13.30
2017-12-05T00:46:53.093Z,13.40
2017-12-05T00:49:20.922Z,13.40
2017-12-05T00:51:48.725Z,13.40
2017-12-05T00:54:17.346Z,13.30
2017-12-05T00:56:45.144Z,13.30
2017-12-05T00:59:12.986Z,13.30
2017-12-05T01:01:40.856Z,13.30
2017-12-05T01:04:08.737Z,13.30
2017-12-05T01:06:36.525Z,13.30
2017-12-05T01:09:04.411Z,13.30
2017-12-05T01:11:32.221Z,13.30
2017-12-05T01:14:00.032Z,13.30
2017-12-05T01:16:27.803Z,13.30
2017-12-05T01:18:55.600Z,13.30
2017-12-05T01:21:23.424Z,13.30
2017-12-05T01:23:51.319Z,13.30
2017-12-05T01:26:19.171Z,13.30
2017-12-05T01:28:47.045Z,13.30
2017-12-05T01:31:14.821Z,13.30
2017-12-05T01:33:42.727Z,13.30
2017-12-05T01:36:10.526Z,13.20
2017-12-05T01:38:38.411Z,13.20
2017-12-05T01:41:06.396Z,13.20
2017-12-05T01:43:34.234Z,13.20
2017-12-05T01:46:02.101Z,13.20
2017-12-05T01:48:29.893Z,13.20
2017-12-05T01:50:57.798Z,13.20
2017-12-05T01:53:25.675Z,13.20
2017-12-05T01:55:53.595Z,13.20
2017-12-05T01:58:21.551Z,13.20
2017-12-05T02:00:49.604Z,13.20
2017-12-05T02:03:19.331Z,13.20
2017-12-05T02:05:48.079Z,13.20
2017-12-05T02:08:15.995Z,13.20
2017-12-05T02:10:44.018Z,13.20
2017-12-05T02:13:12.075Z,13.20
2017-12-05T02:15:40.103Z,13.10
2017-12-05T02:18:08.068Z,13.10
2017-12-05T02:20:36.564Z,13.20
2017-12-05T04:15:38.993Z,13.30
2017-12-05T04:18:06.919Z,13.30
2017-12-05T04:20:34.726Z,13.20
2017-12-05T04:23:03.609Z,13.20
2017-12-05T04:25:33.182Z,13.10
2017-12-05T04:28:01.398Z,13.10
2017-12-05T04:30:29.333Z,13.00
2017-12-05T04:32:57.218Z,13.10
2017-12-05T04:35:25.117Z,13.10
2017-12-05T04:40:51.503Z,13.00
2017-12-05T04:43:19.412Z,13.00
2017-12-05T04:45:47.452Z,13.00
2017-12-05T04:48:15.476Z,13.00
2017-12-05T04:50:43.511Z,13.00
2017-12-05T04:53:12.159Z,13.00
2017-12-05T04:55:40.086Z,12.90
2017-12-05T04:58:08.014Z,12.90
2017-12-05T05:00:42.001Z,12.90
2017-12-05T05:03:09.982Z,12.90
2017-12-05T05:05:38.582Z,12.90
2017-12-05T05:08:06.463Z,12.90
2017-12-05T05:10:34.353Z,12.90
2017-12-05T05:13:02.279Z,12.80
2017-12-05T05:15:31.074Z,12.80
2017-12-05T05:17:59.039Z,12.80
2017-12-05T05:20:27.979Z,12.80
2017-12-05T05:23:02.737Z,12.80
2017-12-05T05:25:31.752Z,12.80
2017-12-05T05:27:59.637Z,12.80
2017-12-05T05:30:27.528Z,12.80
2017-12-05T05:32:55.535Z,12.80
2017-12-05T05:35:23.522Z,12.80
2017-12-05T05:37:51.775Z,12.80
2017-12-05T05:40:19.777Z,12.80
2017-12-05T05:42:47.753Z,12.80
2017-12-05T05:45:15.647Z,12.80
2017-12-05T05:47:43.574Z,12.80
2017-12-05T05:50:11.576Z,12.80
2017-12-05T05:55:14.273Z,12.80
2017-12-05T05:57:42.890Z,12.80
2017-12-05T06:00:10.771Z,12.80
2017-12-05T06:02:38.618Z,12.80
2017-12-05T06:05:06.518Z,12.80
2017-12-05T06:07:34.359Z,12.80
2017-12-05T06:10:02.207Z,12.80
2017-12-05T06:12:30.886Z,12.80
2017-12-05T06:14:58.896Z,12.80
2017-12-05T06:17:26.784Z,12.80
2017-12-05T06:19:54.709Z,12.80
2017-12-05T06:22:22.601Z,12.80
2017-12-05T06:24:50.494Z,12.70
2017-12-05T06:27:18.894Z,12.70
2017-12-05T06:29:46.885Z,12.80
2017-12-05T06:32:15.191Z,12.70
2017-12-05T06:34:43.125Z,12.70
2017-12-05T06:37:10.988Z,12.80
2017-12-05T06:42:13.826Z,12.70
2017-12-05T06:44:41.689Z,12.70
2017-12-05T06:47:09.597Z,12.80
2017-12-05T06:49:38.422Z,12.80
2017-12-05T06:52:06.497Z,12.70
2017-12-05T06:54:34.533Z,12.80
2017-12-05T06:57:02.626Z,12.70
2017-12-05T06:59:34.534Z,12.80
2017-12-05T07:02:02.492Z,12.80
2017-12-05T07:07:07.310Z,12.80
2017-12-05T07:09:35.187Z,12.80
2017-12-05T07:12:03.047Z,12.80
2017-12-05T07:14:31.791Z,12.70
2017-12-05T07:16:59.737Z,12.70
2017-12-05T07:19:27.618Z,12.70
2017-12-05T07:21:55.626Z,12.70
2017-12-05T07:24:23.503Z,12.70
2017-12-05T07:26:51.540Z,12.70
2017-12-05T07:29:20.155Z,12.70
2017-12-05T07:31:48.082Z,12.70
2017-12-05T07:34:15.988Z,12.70
2017-12-05T07:36:43.911Z,12.70
2017-12-05T07:39:11.792Z,12.80
2017-12-05T07:41:39.639Z,12.80
2017-12-05T07:44:07.570Z,12.80
2017-12-05T07:46:35.573Z,12.80
2017-12-05T07:49:03.569Z,12.80
2017-12-05T07:51:31.736Z,12.80
2017-12-05T07:53:59.556Z,12.90
2017-12-05T07:56:27.406Z,12.90
2017-12-05T07:58:55.267Z,13.00
2017-12-05T08:01:23.102Z,13.00
2017-12-05T08:03:50.924Z,13.00
2017-12-05T08:06:18.876Z,13.00
2017-12-05T08:08:46.756Z,13.00
2017-12-05T08:11:14.629Z,13.00
2017-12-05T08:13:42.636Z,13.10
2017-12-05T08:16:10.657Z,13.20
2017-12-05T08:18:38.548Z,13.20
2017-12-05T08:21:06.455Z,13.30
2017-12-05T08:23:35.087Z,13.40
2017-12-05T08:26:03.057Z,13.40
2017-12-05T08:28:31.129Z,13.40
2017-12-05T08:30:59.092Z,13.50
2017-12-05T08:33:27.139Z,13.50
2017-12-05T08:35:55.052Z,13.60
2017-12-05T08:38:22.912Z,13.60
2017-12-05T08:40:50.870Z,13.60
2017-12-05T08:43:18.829Z,13.70
2017-12-05T08:45:46.826Z,13.80
2017-12-05T08:48:14.768Z,13.80
2017-12-05T08:50:42.616Z,13.90
2017-12-05T08:53:10.464Z,13.90
2017-12-05T08:55:38.474Z,14.00
2017-12-05T08:58:06.412Z,14.00
2017-12-05T09:00:34.296Z,14.10
2017-12-05T09:03:02.136Z,14.10
2017-12-05T09:05:30.823Z,14.20
2017-12-05T09:07:58.724Z,14.20
2017-12-05T09:10:26.557Z,14.20
2017-12-05T09:12:55.181Z,14.40
2017-12-05T09:15:23.192Z,14.30
2017-12-05T09:17:51.243Z,14.40
2017-12-05T09:20:19.205Z,14.40
2017-12-05T09:22:47.123Z,14.50
2017-12-05T09:25:15.096Z,14.50
2017-12-05T09:27:43.040Z,14.60
2017-12-05T09:30:11.696Z,14.60
2017-12-05T09:32:39.646Z,14.70
2017-12-05T09:35:07.594Z,14.70
2017-12-05T09:37:35.483Z,14.70
2017-12-05T09:40:03.394Z,14.80
2017-12-05T09:42:31.350Z,14.80
2017-12-05T09:45:00.024Z,14.90
2017-12-05T09:47:27.954Z,14.80
2017-12-05T09:49:55.861Z,14.90
2017-12-05T09:52:23.719Z,14.90
2017-12-05T09:54:51.597Z,14.90
2017-12-05T09:57:19.466Z,14.90
2017-12-05T09:59:48.169Z,14.90
2017-12-05T10:02:16.121Z,14.90
2017-12-05T10:04:44.179Z,14.90
2017-12-05T10:07:12.074Z,14.90
2017-12-05T10:09:40.859Z,15.00
2017-12-05T10:12:08.793Z,15.00
2017-12-05T10:14:36.772Z,15.00
2017-12-05T10:17:04.795Z,15.10
2017-12-05T10:19:32.741Z,15.10
2017-12-05T10:22:01.379Z,15.20
2017-12-05T10:24:29.215Z,15.20
2017-12-05T10:26:57.128Z,15.20
2017-12-05T10:29:25.260Z,15.30
2017-12-05T10:31:53.127Z,15.30
2017-12-05T10:34:20.979Z,15.40
2017-12-05T10:36:48.949Z,15.40
2017-12-05T10:39:16.857Z,15.40
2017-12-05T10:41:44.793Z,15.50
2017-12-05T10:44:13.120Z,15.60
2017-12-05T10:46:41.201Z,15.60
2017-12-05T10:49:10.166Z,15.60
2017-12-05T10:51:38.053Z,15.60
2017-12-05T10:54:06.067Z,15.60
2017-12-05T10:56:33.925Z,15.70
2017-12-05T10:59:01.932Z,15.80
2017-12-05T11:01:29.916Z,15.90
2017-12-05T11:03:57.790Z,15.90
2017-12-05T11:06:25.649Z,16.00
2017-12-05T11:08:53.667Z,16.00
2017-12-05T11:11:21.546Z,16.10
2017-12-05T11:13:49.423Z,16.10
2017-12-05T11:16:17.342Z,16.20
2017-12-05T11:18:45.960Z,16.20
2017-12-05T11:21:13.878Z,16.20
2017-12-05T11:23:42.660Z,16.30
2017-12-05T11:26:11.550Z,16.30
2017-12-05T11:28:39.645Z,16.30
2017-12-05T11:31:07.511Z,16.30
2017-12-05T11:33:36.086Z,16.50
2017-12-05T11:36:04.740Z,16.60
2017-12-05T11:38:32.578Z,16.60
2017-12-05T11:41:00.443Z,16.60
2017-12-05T11:43:28.311Z,16.60
2017-12-05T11:45:56.213Z,16.60
2017-12-05T11:48:24.126Z,16.60
2017-12-05T11:50:52.056Z,16.70
2017-12-05T11:53:20.036Z,16.70
2017-12-05T11:55:48.760Z,16.80
2017-12-05T11:58:16.822Z,16.80
2017-12-05T12:00:44.865Z,16.80
2017-12-05T12:03:12.980Z,16.90
2017-12-05T12:05:41.307Z,16.90
2017-12-05T12:08:09.312Z,17.00
2017-12-05T12:10:37.169Z,17.00
2017-12-05T12:13:05.723Z,17.10
2017-12-05T12:15:33.542Z,17.10
2017-12-05T12:18:02.109Z,17.10
2017-12-05T12:20:29.922Z,17.10
2017-12-05T12:22:58.003Z,17.10
2017-12-05T12:25:26.693Z,17.10
2017-12-05T12:27:54.468Z,17.10
2017-12-05T12:30:23.100Z,17.20
2017-12-05T12:32:50.884Z,17.20
2017-12-05T12:35:18.724Z,17.20
2017-12-05T12:37:46.594Z,17.30
2017-12-05T12:40:14.695Z,17.20
2017-12-05T12:42:42.590Z,17.30
2017-12-05T12:45:11.165Z,17.30
2017-12-05T12:47:39.052Z,17.20
2017-12-05T12:50:07.644Z,17.30
2017-12-05T12:52:35.583Z,17.30
2017-12-05T12:55:04.271Z,17.30
2017-12-05T12:57:32.131Z,17.30
2017-12-05T12:59:59.961Z,17.40
2017-12-05T13:02:28.547Z,17.40
2017-12-05T13:04:56.475Z,17.30
2017-12-05T13:07:24.302Z,17.40
2017-12-05T13:09:52.195Z,17.40
2017-12-05T13:12:20.797Z,17.40
2017-12-05T13:14:48.595Z,17.40
2017-12-05T13:17:16.398Z,17.40
2017-12-05T13:19:45.142Z,17.40
2017-12-05T13:22:12.943Z,17.40
2017-12-05T13:24:40.821Z,17.40
2017-12-05T13:27:09.433Z,17.40
2017-12-05T13:29:37.235Z,17.30
2017-12-05T13:32:05.037Z,17.40
2017-12-05T13:34:33.849Z,17.30
2017-12-05T13:37:02.454Z,17.30
2017-12-05T13:39:30.269Z,17.30
2017-12-05T13:41:58.992Z,17.30
2017-12-05T13:44:26.862Z,17.30
2017-12-05T13:46:54.792Z,17.30
2017-12-05T13:49:23.459Z,17.20
2017-12-05T13:51:51.435Z,17.20
2017-12-05T13:54:19.635Z,17.20
2017-12-05T13:56:47.689Z,17.20
2017-12-05T13:59:15.512Z,17.20
2017-12-05T14:01:43.417Z,17.10
2017-12-05T14:04:12.096Z,17.10
2017-12-05T14:06:39.983Z,17.20
2017-12-05T14:09:07.812Z,17.20
2017-12-05T14:11:35.660Z,17.10
2017-12-05T14:14:03.633Z,17.10
2017-12-05T14:16:31.465Z,17.00
2017-12-05T14:18:59.345Z,17.00
2017-12-05T14:21:27.181Z,17.00
2017-12-05T14:23:55.967Z,17.00
2017-12-05T14:26:24.773Z,17.00
2017-12-05T14:28:52.629Z,17.00
2017-12-05T14:31:20.654Z,17.00
2017-12-05T14:33:48.814Z,16.90
2017-12-05T14:36:16.776Z,16.90
2017-12-05T14:38:44.657Z,16.90
2017-12-05T14:41:12.570Z,16.90
2017-12-05T14:43:45.329Z,16.90
2017-12-05T14:46:13.492Z,16.90
2017-12-05T14:48:42.125Z,16.90
2017-12-05T14:51:10.888Z,16.80
2017-12-05T14:53:39.571Z,16.80
2017-12-05T14:56:08.395Z,16.70
2017-12-05T14:58:36.269Z,16.80
2017-12-05T15:01:05.064Z,16.70
2017-12-05T15:03:32.930Z,16.60
2017-12-05T15:06:00.839Z,16.70
2017-12-05T15:08:29.511Z,16.70
2017-12-05T15:10:57.330Z,16.60
2017-12-05T15:13:25.195Z,16.60
2017-12-05T15:15:53.003Z,16.60
2017-12-05T15:18:20.905Z,16.60
2017-12-05T15:20:49.633Z,16.50
2017-12-05T15:23:17.621Z,16.50
2017-12-05T15:25:45.585Z,16.50
2017-12-05T15:28:13.869Z,16.50
2017-12-05T15:30:47.564Z,16.40
2017-12-05T15:33:16.637Z,16.40
2017-12-05T15:35:46.928Z,16.30
2017-12-05T15:38:15.647Z,16.30
2017-12-05T15:40:43.481Z,16.30
2017-12-05T15:43:12.075Z,16.30
2017-12-05T15:45:39.938Z,16.30
2017-12-05T15:48:07.828Z,16.30
2017-12-05T15:50:35.686Z,16.20
2017-12-05T15:53:03.685Z,16.30
2017-12-05T15:55:33.156Z,16.30
2017-12-05T15:58:01.074Z,16.20
2017-12-05T16:00:30.270Z,16.30
2017-12-05T16:02:59.069Z,16.20
2017-12-05T16:05:27.854Z,16.20
2017-12-05T16:07:55.692Z,16.20
2017-12-05T16:10:23.473Z,16.20
2017-12-05T16:12:51.290Z,16.10
2017-12-05T16:15:19.311Z,16.10
2017-12-05T16:17:47.096Z,16.10
2017-12-05T16:20:15.678Z,16.10
2017-12-05T16:22:44.540Z,16.10
2017-12-05T16:25:12.359Z,16.00
2017-12-05T16:27:40.193Z,16.00
2017-12-05T16:30:07.995Z,16.00
2017-12-05T16:32:35.967Z,16.00
2017-12-05T16:35:03.856Z,16.00
2017-12-05T16:37:47.879Z,16.00
2017-12-05T16:40:17.180Z,16.00
2017-12-05T16:42:45.979Z,16.00
2017-12-05T16:45:17.126Z,15.90
2017-12-05T16:47:45.191Z,15.90
2017-12-05T16:50:14.981Z,15.90
2017-12-05T16:52:42.905Z,15.90
2017-12-05T16:55:10.674Z,15.90
2017-12-05T16:57:38.580Z,15.90
2017-12-05T17:00:06.448Z,15.90
2017-12-05T17:02:34.336Z,15.90
2017-12-05T17:05:02.164Z,15.90
2017-12-05T17:07:30.725Z,15.80
2017-12-05T17:09:59.488Z,15.80
2017-12-05T17:12:27.461Z,15.80
2017-12-05T17:14:55.371Z,15.80
2017-12-05T17:17:23.895Z,15.80
2017-12-05T17:19:53.639Z,15.80
2017-12-05T17:22:23.285Z,15.80
2017-12-05T17:24:51.126Z,15.80
2017-12-05T17:27:19.736Z,15.70
2017-12-05T17:29:51.323Z,15.80
2017-12-05T17:32:19.264Z,15.80
2017-12-05T17:34:47.167Z,15.80
2017-12-05T17:37:21.013Z,15.70
2017-12-05T17:43:21.605Z,15.70
2017-12-05T17:49:12.612Z,15.70
2017-12-05T17:51:41.722Z,15.60
2017-12-05T17:54:24.517Z,15.60
2017-12-05T17:57:27.184Z,15.60
2017-12-05T17:59:55.042Z,15.60
2017-12-05T18:02:33.126Z,15.60
2017-12-05T18:05:42.610Z,15.60
2017-12-05T18:08:11.315Z,15.50
2017-12-05T18:11:00.833Z,15.50
2017-12-05T18:13:28.678Z,15.50
2017-12-05T18:16:09.694Z,15.50
2017-12-05T18:18:37.701Z,15.50
2017-12-05T18:28:14.401Z,15.30
2017-12-05T18:30:42.419Z,15.20
2017-12-05T18:33:10.380Z,15.10
2017-12-05T18:35:39.593Z,15.10
2017-12-05T18:38:24.927Z,15.10
2017-12-05T18:40:52.788Z,15.10
2017-12-05T18:43:36.103Z,15.10
2017-12-05T18:46:04.000Z,15.10
2017-12-05T18:49:15.686Z,15.00
2017-12-05T18:51:43.544Z,15.00
2017-12-05T18:54:12.799Z,15.00
2017-12-05T18:56:43.029Z,15.00
2017-12-05T18:59:48.507Z,15.00
2017-12-05T19:02:16.350Z,14.90
2017-12-05T19:04:44.192Z,14.90
2017-12-05T19:08:00.176Z,14.90
2017-12-05T19:10:28.145Z,14.80
2017-12-05T19:12:57.247Z,14.80
2017-12-05T19:15:25.997Z,14.80
2017-12-05T19:17:55.184Z,14.80
2017-12-05T19:20:36.948Z,14.70
2017-12-05T19:23:05.515Z,14.70
2017-12-05T19:25:34.655Z,14.70
2017-12-05T19:28:03.892Z,14.60
2017-12-05T19:30:33.189Z,14.60
2017-12-05T19:33:02.437Z,14.60
2017-12-05T19:35:31.312Z,14.50
2017-12-05T19:38:00.327Z,14.50
2017-12-05T19:40:29.446Z,14.50
2017-12-05T19:42:58.576Z,14.40
2017-12-05T19:45:27.824Z,14.40
2017-12-05T19:47:57.081Z,14.50
2017-12-05T19:50:26.197Z,14.50
2017-12-05T19:52:54.541Z,14.50
2017-12-05T19:55:23.897Z,14.50
2017-12-05T19:57:53.363Z,14.50
2017-12-05T20:00:22.714Z,14.50
2017-12-05T20:02:52.611Z,14.50
2017-12-05T20:05:22.019Z,14.50
2017-12-05T20:07:53.524Z,14.40
2017-12-05T20:10:22.779Z,14.40
2017-12-05T20:15:59.276Z,14.40
2017-12-05T20:18:28.246Z,14.40
2017-12-05T20:20:57.364Z,14.50
2017-12-05T20:23:26.452Z,14.50
2017-12-05T20:25:55.713Z,14.40
2017-12-05T20:28:26.193Z,14.50
2017-12-05T20:30:55.496Z,14.50
2017-12-05T20:33:25.902Z,14.40
2017-12-05T20:35:54.977Z,14.50
2017-12-05T20:38:24.078Z,14.50
2017-12-05T20:40:53.349Z,14.50
2017-12-05T20:49:01.045Z,14.50
2017-12-05T20:51:30.147Z,14.50
2017-12-05T20:53:59.232Z,14.50
2017-12-05T20:56:29.915Z,14.50
2017-12-05T20:58:59.177Z,14.50
2017-12-05T21:01:29.929Z,14.50
2017-12-05T21:03:59.195Z,14.50
2017-12-05T21:06:27.025Z,14.50
2017-12-05T21:08:55.342Z,14.50
2017-12-05T21:11:24.484Z,14.50
2017-12-05T21:13:54.637Z,14.50
2017-12-05T21:16:22.436Z,14.50
2017-12-05T21:18:50.205Z,14.50
2017-12-05T21:21:19.379Z,14.50
2017-12-05T21:23:48.415Z,14.50
2017-12-05T21:26:17.572Z,14.50
2017-12-05T21:28:46.709Z,14.50
2017-12-05T21:31:17.144Z,14.40
2017-12-05T21:33:46.248Z,14.40
2017-12-05T21:36:15.279Z,14.40
2017-12-05T21:38:44.512Z,14.40
2017-12-05T21:41:14.945Z,14.40
2017-12-05T21:43:44.685Z,14.50
2017-12-05T21:46:13.790Z,14.40
2017-12-05T21:48:42.962Z,14.50
2017-12-05T21:51:12.583Z,14.40
2017-12-05T21:53:41.772Z,14.40
2017-12-05T21:56:11.672Z,14.40
2017-12-05T21:58:41.426Z,14.50
2017-12-05T22:01:11.464Z,14.50
2017-12-05T22:03:40.632Z,14.50
2017-12-05T22:06:10.061Z,14.40
2017-12-05T22:08:39.427Z,14.40
2017-12-05T22:11:10.772Z,14.40
2017-12-05T22:13:42.546Z,14.40
2017-12-05T22:16:11.671Z,14.40
2017-12-05T22:18:41.343Z,14.40
2017-12-05T22:27:43.456Z,14.40
2017-12-05T22:33:51.910Z,14.30
2017-12-05T22:36:49.557Z,14.30
2017-12-05T22:45:39.148Z,14.40
2017-12-05T22:48:07.042Z,14.40
2017-12-05T22:50:36.555Z,14.40
2017-12-05T22:53:05.558Z,14.30
2017-12-05T22:55:39.210Z,14.40
2017-12-05T22:58:14.257Z,14.30
2017-12-05T23:00:46.021Z,14.30
2017-12-05T23:03:21.225Z,14.30
2017-12-05T23:17:54.742Z,14.20
2017-12-05T23:20:30.401Z,14.20
2017-12-05T23:22:58.169Z,14.20
2017-12-05T23:25:26.044Z,14.20
2017-12-05T23:27:53.853Z,14.20
2017-12-05T23:30:23.081Z,14.10
2017-12-05T23:32:50.848Z,14.10
2017-12-05T23:35:19.581Z,14.10
2017-12-05T23:37:47.393Z,14.10
2017-12-05T23:40:15.281Z,14.00
2017-12-05T23:42:43.136Z,14.00
2017-12-05T23:45:10.951Z,14.10
2017-12-05T23:47:38.801Z,14.00
2017-12-05T23:50:06.656Z,14.00
2017-12-05T23:52:34.968Z,14.10
2017-12-05T23:55:03.567Z,14.10
2017-12-05T23:57:33.857Z,14.10
